sensor_id;sensor_type;location;lat;lon;timestamp;temperature;humidity
20680;DHT22;10499;47.494;7.608;2022-08-21T00:01:53;17.70;99.90
20680;DHT22;10499;47.494;7.608;2022-08-21T00:04:19;17.60;99.90
20680;DHT22;10499;47.494;7.608;2022-08-21T00:06:45;17.50;99.90
20680;DHT22;10499;47.494;7.608;2022-08-21T00:09:10;17.50;99.90
20680;DHT22;10499;47.494;7.608;2022-08-21T00:11:37;17.50;99.90
20680;DHT22;10499;47.494;7.608;2022-08-21T00:14:06;17.50;99.90
20680;DHT22;10499;47.494;7.608;2022-08-21T00:16:32;17.40;99.90
20680;DHT22;10499;47.494;7.608;2022-08-21T00:18:58;17.40;99.90
20680;DHT22;10499;47.494;7.608;2022-08-21T00:21:23;17.40;99.90
20680;DHT22;10499;47.494;7.608;2022-08-21T00:23:50;17.40;99.90
20680;DHT22;10499;47.494;7.608;2022-08-21T00:26:16;17.30;99.90
20680;DHT22;10499;47.494;7.608;2022-08-21T00:32:23;17.30;99.90
20680;DHT22;10499;47.494;7.608;2022-08-21T00:35:18;17.30;99.90
20680;DHT22;10499;47.494;7.608;2022-08-21T00:38:11;17.20;99.90
20680;DHT22;10499;47.494;7.608;2022-08-21T00:44:02;17.10;99.90
20680;DHT22;10499;47.494;7.608;2022-08-21T00:46:29;17.10;99.90
20680;DHT22;10499;47.494;7.608;2022-08-21T00:48:55;17.10;99.90
20680;DHT22;10499;47.494;7.608;2022-08-21T00:51:42;17.10;99.90
20680;DHT22;10499;47.494;7.608;2022-08-21T00:54:09;17.10;99.90
20680;DHT22;10499;47.494;7.608;2022-08-21T00:56:36;17.00;99.90
20680;DHT22;10499;47.494;7.608;2022-08-21T00:59:47;17.00;99.90
20680;DHT22;10499;47.494;7.608;2022-08-21T01:08:46;17.00;99.90
20680;DHT22;10499;47.494;7.608;2022-08-21T01:11:38;16.90;99.90
20680;DHT22;10499;47.494;7.608;2022-08-21T01:14:15;16.90;99.90
20680;DHT22;10499;47.494;7.608;2022-08-21T01:16:44;16.90;99.90
20680;DHT22;10499;47.494;7.608;2022-08-21T01:19:11;16.90;99.90
20680;DHT22;10499;47.494;7.608;2022-08-21T01:21:37;16.90;99.90
20680;DHT22;10499;47.494;7.608;2022-08-21T01:24:02;16.90;99.90
20680;DHT22;10499;47.494;7.608;2022-08-21T01:26:31;16.90;99.90
20680;DHT22;10499;47.494;7.608;2022-08-21T01:29:02;16.80;99.90
20680;DHT22;10499;47.494;7.608;2022-08-21T01:31:30;16.80;99.90
20680;DHT22;10499;47.494;7.608;2022-08-21T01:33:57;16.70;99.90
20680;DHT22;10499;47.494;7.608;2022-08-21T01:38:56;16.70;99.90
20680;DHT22;10499;47.494;7.608;2022-08-21T01:41:22;16.70;99.90
20680;DHT22;10499;47.494;7.608;2022-08-21T01:43:48;16.70;99.90
20680;DHT22;10499;47.494;7.608;2022-08-21T01:46:14;16.70;99.90
20680;DHT22;10499;47.494;7.608;2022-08-21T01:48:40;16.70;99.90
20680;DHT22;10499;47.494;7.608;2022-08-21T01:51:06;16.70;99.90
20680;DHT22;10499;47.494;7.608;2022-08-21T01:53:33;16.70;99.90
20680;DHT22;10499;47.494;7.608;2022-08-21T01:56:01;16.70;99.90
20680;DHT22;10499;47.494;7.608;2022-08-21T01:58:28;16.80;99.90
20680;DHT22;10499;47.494;7.608;2022-08-21T02:00:53;16.80;99.90
20680;DHT22;10499;47.494;7.608;2022-08-21T02:03:19;16.80;99.90
20680;DHT22;10499;47.494;7.608;2022-08-21T02:05:45;16.80;99.90
20680;DHT22;10499;47.494;7.608;2022-08-21T02:08:10;16.80;99.90
20680;DHT22;10499;47.494;7.608;2022-08-21T02:10:36;16.80;99.90
20680;DHT22;10499;47.494;7.608;2022-08-21T02:13:02;16.80;99.90
20680;DHT22;10499;47.494;7.608;2022-08-21T02:15:29;16.90;99.90
20680;DHT22;10499;47.494;7.608;2022-08-21T02:18:00;16.90;99.90
20680;DHT22;10499;47.494;7.608;2022-08-21T02:20:32;16.90;99.90
20680;DHT22;10499;47.494;7.608;2022-08-21T02:22:58;16.90;99.90
20680;DHT22;10499;47.494;7.608;2022-08-21T02:25:25;16.80;99.90
20680;DHT22;10499;47.494;7.608;2022-08-21T02:27:52;16.80;99.90
20680;DHT22;10499;47.494;7.608;2022-08-21T02:30:25;16.80;99.90
20680;DHT22;10499;47.494;7.608;2022-08-21T02:32:51;16.80;99.90
20680;DHT22;10499;47.494;7.608;2022-08-21T02:35:17;16.80;99.90
20680;DHT22;10499;47.494;7.608;2022-08-21T02:37:49;16.80;99.90
20680;DHT22;10499;47.494;7.608;2022-08-21T02:40:17;16.80;99.90
20680;DHT22;10499;47.494;7.608;2022-08-21T02:42:43;16.80;99.90
20680;DHT22;10499;47.494;7.608;2022-08-21T02:45:10;16.80;99.90
20680;DHT22;10499;47.494;7.608;2022-08-21T02:47:35;16.70;99.90
20680;DHT22;10499;47.494;7.608;2022-08-21T02:50:01;16.70;99.90
20680;DHT22;10499;47.494;7.608;2022-08-21T02:52:27;16.70;99.90
20680;DHT22;10499;47.494;7.608;2022-08-21T02:54:53;16.60;99.90
20680;DHT22;10499;47.494;7.608;2022-08-21T02:57:19;16.60;99.90
20680;DHT22;10499;47.494;7.608;2022-08-21T02:59:44;16.60;99.90
20680;DHT22;10499;47.494;7.608;2022-08-21T03:02:10;16.50;99.90
20680;DHT22;10499;47.494;7.608;2022-08-21T03:04:37;16.50;99.90
20680;DHT22;10499;47.494;7.608;2022-08-21T03:07:03;16.50;99.90
20680;DHT22;10499;47.494;7.608;2022-08-21T03:09:28;16.50;99.90
20680;DHT22;10499;47.494;7.608;2022-08-21T03:11:54;16.50;99.90
20680;DHT22;10499;47.494;7.608;2022-08-21T03:14:19;16.50;99.90
20680;DHT22;10499;47.494;7.608;2022-08-21T03:16:45;16.50;99.90
20680;DHT22;10499;47.494;7.608;2022-08-21T03:19:12;16.50;99.90
20680;DHT22;10499;47.494;7.608;2022-08-21T03:21:38;16.40;99.90
20680;DHT22;10499;47.494;7.608;2022-08-21T03:24:04;16.40;99.90
20680;DHT22;10499;47.494;7.608;2022-08-21T03:26:30;16.40;99.90
20680;DHT22;10499;47.494;7.608;2022-08-21T03:28:56;16.30;99.90
20680;DHT22;10499;47.494;7.608;2022-08-21T03:31:23;16.30;99.90
20680;DHT22;10499;47.494;7.608;2022-08-21T03:33:49;16.30;99.90
20680;DHT22;10499;47.494;7.608;2022-08-21T03:36:15;16.30;99.90
20680;DHT22;10499;47.494;7.608;2022-08-21T03:38:41;16.30;99.90
20680;DHT22;10499;47.494;7.608;2022-08-21T03:41:08;16.40;99.90
20680;DHT22;10499;47.494;7.608;2022-08-21T03:43:34;16.30;99.90
20680;DHT22;10499;47.494;7.608;2022-08-21T03:46:02;16.30;99.90
20680;DHT22;10499;47.494;7.608;2022-08-21T03:48:28;16.30;99.90
20680;DHT22;10499;47.494;7.608;2022-08-21T03:50:54;16.20;99.90
20680;DHT22;10499;47.494;7.608;2022-08-21T03:53:21;16.20;99.90
20680;DHT22;10499;47.494;7.608;2022-08-21T03:55:49;16.20;99.90
20680;DHT22;10499;47.494;7.608;2022-08-21T03:58:17;16.10;99.90
20680;DHT22;10499;47.494;7.608;2022-08-21T04:00:50;16.10;99.90
20680;DHT22;10499;47.494;7.608;2022-08-21T04:03:16;16.10;99.90
20680;DHT22;10499;47.494;7.608;2022-08-21T04:05:42;16.10;99.90
20680;DHT22;10499;47.494;7.608;2022-08-21T04:08:08;16.10;99.90
20680;DHT22;10499;47.494;7.608;2022-08-21T04:10:36;16.10;99.90
20680;DHT22;10499;47.494;7.608;2022-08-21T04:13:03;16.00;99.90
20680;DHT22;10499;47.494;7.608;2022-08-21T04:15:29;16.00;99.90
20680;DHT22;10499;47.494;7.608;2022-08-21T04:17:54;16.00;99.90
20680;DHT22;10499;47.494;7.608;2022-08-21T04:20:21;16.00;99.90
20680;DHT22;10499;47.494;7.608;2022-08-21T04:22:47;16.00;99.90
20680;DHT22;10499;47.494;7.608;2022-08-21T04:25:14;16.00;99.90
20680;DHT22;10499;47.494;7.608;2022-08-21T04:27:40;15.90;99.90
20680;DHT22;10499;47.494;7.608;2022-08-21T04:30:07;15.90;99.90
20680;DHT22;10499;47.494;7.608;2022-08-21T04:32:34;15.80;99.90
20680;DHT22;10499;47.494;7.608;2022-08-21T04:35:07;15.80;99.90
20680;DHT22;10499;47.494;7.608;2022-08-21T04:37:34;15.80;99.90
20680;DHT22;10499;47.494;7.608;2022-08-21T04:39:59;15.80;99.90
20680;DHT22;10499;47.494;7.608;2022-08-21T04:42:26;15.90;99.90
20680;DHT22;10499;47.494;7.608;2022-08-21T04:44:52;15.90;99.90
20680;DHT22;10499;47.494;7.608;2022-08-21T04:47:17;15.80;99.90
20680;DHT22;10499;47.494;7.608;2022-08-21T04:49:44;15.80;99.90
20680;DHT22;10499;47.494;7.608;2022-08-21T04:52:10;15.80;99.90
20680;DHT22;10499;47.494;7.608;2022-08-21T04:54:36;15.80;99.90
20680;DHT22;10499;47.494;7.608;2022-08-21T04:57:05;15.80;99.90
20680;DHT22;10499;47.494;7.608;2022-08-21T04:59:43;15.80;99.90
20680;DHT22;10499;47.494;7.608;2022-08-21T05:02:10;15.90;99.90
20680;DHT22;10499;47.494;7.608;2022-08-21T05:04:38;15.90;99.90
20680;DHT22;10499;47.494;7.608;2022-08-21T05:07:09;15.90;99.90
20680;DHT22;10499;47.494;7.608;2022-08-21T05:09:37;16.00;99.90
20680;DHT22;10499;47.494;7.608;2022-08-21T05:12:04;16.00;99.90
20680;DHT22;10499;47.494;7.608;2022-08-21T05:14:30;16.10;99.90
20680;DHT22;10499;47.494;7.608;2022-08-21T05:16:56;16.10;99.90
20680;DHT22;10499;47.494;7.608;2022-08-21T05:19:21;16.20;99.90
20680;DHT22;10499;47.494;7.608;2022-08-21T05:21:47;16.20;99.90
20680;DHT22;10499;47.494;7.608;2022-08-21T05:24:13;16.30;99.90
20680;DHT22;10499;47.494;7.608;2022-08-21T05:26:39;16.30;99.90
20680;DHT22;10499;47.494;7.608;2022-08-21T05:29:05;16.40;99.90
20680;DHT22;10499;47.494;7.608;2022-08-21T05:31:31;16.50;99.90
20680;DHT22;10499;47.494;7.608;2022-08-21T05:33:57;16.60;99.90
20680;DHT22;10499;47.494;7.608;2022-08-21T05:36:23;16.70;99.90
20680;DHT22;10499;47.494;7.608;2022-08-21T05:38:49;16.80;99.90
20680;DHT22;10499;47.494;7.608;2022-08-21T05:41:14;16.90;99.90
20680;DHT22;10499;47.494;7.608;2022-08-21T05:43:40;17.00;99.90
20680;DHT22;10499;47.494;7.608;2022-08-21T05:46:07;17.00;99.90
20680;DHT22;10499;47.494;7.608;2022-08-21T05:48:34;17.10;99.90
20680;DHT22;10499;47.494;7.608;2022-08-21T05:51:09;17.20;99.90
20680;DHT22;10499;47.494;7.608;2022-08-21T05:53:36;17.30;99.90
20680;DHT22;10499;47.494;7.608;2022-08-21T05:56:02;17.30;99.90
20680;DHT22;10499;47.494;7.608;2022-08-21T05:58:30;17.40;99.90
20680;DHT22;10499;47.494;7.608;2022-08-21T06:00:56;17.50;99.90
20680;DHT22;10499;47.494;7.608;2022-08-21T06:03:28;17.50;99.90
20680;DHT22;10499;47.494;7.608;2022-08-21T06:05:55;17.60;99.90
20680;DHT22;10499;47.494;7.608;2022-08-21T06:08:21;17.70;99.90
20680;DHT22;10499;47.494;7.608;2022-08-21T06:10:48;17.70;99.90
20680;DHT22;10499;47.494;7.608;2022-08-21T06:13:16;17.80;99.90
20680;DHT22;10499;47.494;7.608;2022-08-21T06:15:42;17.80;99.90
20680;DHT22;10499;47.494;7.608;2022-08-21T06:18:08;17.90;99.90
20680;DHT22;10499;47.494;7.608;2022-08-21T06:20:34;18.00;99.90
20680;DHT22;10499;47.494;7.608;2022-08-21T06:23:00;18.10;99.90
20680;DHT22;10499;47.494;7.608;2022-08-21T06:25:27;18.10;99.90
20680;DHT22;10499;47.494;7.608;2022-08-21T06:27:52;18.20;99.90
20680;DHT22;10499;47.494;7.608;2022-08-21T06:30:18;18.30;99.90
20680;DHT22;10499;47.494;7.608;2022-08-21T06:32:44;18.40;99.90
20680;DHT22;10499;47.494;7.608;2022-08-21T06:35:10;18.60;99.90
20680;DHT22;10499;47.494;7.608;2022-08-21T06:37:36;18.80;99.90
20680;DHT22;10499;47.494;7.608;2022-08-21T06:40:04;19.00;99.90
20680;DHT22;10499;47.494;7.608;2022-08-21T06:42:30;19.20;99.90
20680;DHT22;10499;47.494;7.608;2022-08-21T06:44:57;19.30;99.90
20680;DHT22;10499;47.494;7.608;2022-08-21T06:47:23;19.40;99.90
20680;DHT22;10499;47.494;7.608;2022-08-21T06:49:48;19.60;99.90
20680;DHT22;10499;47.494;7.608;2022-08-21T06:52:14;19.70;99.90
20680;DHT22;10499;47.494;7.608;2022-08-21T06:54:40;20.00;99.90
20680;DHT22;10499;47.494;7.608;2022-08-21T06:57:07;20.20;99.90
20680;DHT22;10499;47.494;7.608;2022-08-21T06:59:33;20.50;99.90
20680;DHT22;10499;47.494;7.608;2022-08-21T07:01:59;20.70;99.90
20680;DHT22;10499;47.494;7.608;2022-08-21T07:04:25;21.00;99.90
20680;DHT22;10499;47.494;7.608;2022-08-21T07:06:50;21.20;99.90
20680;DHT22;10499;47.494;7.608;2022-08-21T07:09:16;21.40;99.90
20680;DHT22;10499;47.494;7.608;2022-08-21T07:11:42;21.60;99.90
20680;DHT22;10499;47.494;7.608;2022-08-21T07:14:08;21.70;99.90
20680;DHT22;10499;47.494;7.608;2022-08-21T07:16:34;22.00;99.90
20680;DHT22;10499;47.494;7.608;2022-08-21T07:19:00;22.10;99.90
20680;DHT22;10499;47.494;7.608;2022-08-21T07:21:26;22.20;99.30
20680;DHT22;10499;47.494;7.608;2022-08-21T07:23:52;22.30;98.60
20680;DHT22;10499;47.494;7.608;2022-08-21T07:26:20;22.40;97.90
20680;DHT22;10499;47.494;7.608;2022-08-21T07:28:50;22.40;97.20
20680;DHT22;10499;47.494;7.608;2022-08-21T07:31:19;22.40;97.20
20680;DHT22;10499;47.494;7.608;2022-08-21T07:33:45;22.30;97.00
20680;DHT22;10499;47.494;7.608;2022-08-21T07:36:11;22.10;96.60
20680;DHT22;10499;47.494;7.608;2022-08-21T07:38:37;21.90;96.90
20680;DHT22;10499;47.494;7.608;2022-08-21T07:41:10;21.70;97.10
20680;DHT22;10499;47.494;7.608;2022-08-21T07:43:37;21.50;97.30
20680;DHT22;10499;47.494;7.608;2022-08-21T07:46:03;21.40;97.20
20680;DHT22;10499;47.494;7.608;2022-08-21T07:48:28;21.30;97.30
20680;DHT22;10499;47.494;7.608;2022-08-21T07:50:54;21.30;97.60
20680;DHT22;10499;47.494;7.608;2022-08-21T07:53:20;21.30;97.70
20680;DHT22;10499;47.494;7.608;2022-08-21T07:55:46;21.40;97.80
20680;DHT22;10499;47.494;7.608;2022-08-21T07:58:12;21.40;97.10
20680;DHT22;10499;47.494;7.608;2022-08-21T08:00:39;21.40;97.10
20680;DHT22;10499;47.494;7.608;2022-08-21T08:03:05;21.40;96.40
20680;DHT22;10499;47.494;7.608;2022-08-21T08:05:31;21.50;96.00
20680;DHT22;10499;47.494;7.608;2022-08-21T08:07:57;21.50;95.80
20680;DHT22;10499;47.494;7.608;2022-08-21T08:10:23;21.60;95.90
20680;DHT22;10499;47.494;7.608;2022-08-21T08:12:50;21.70;95.90
20680;DHT22;10499;47.494;7.608;2022-08-21T08:15:21;21.90;95.20
20680;DHT22;10499;47.494;7.608;2022-08-21T08:17:47;22.00;94.20
20680;DHT22;10499;47.494;7.608;2022-08-21T08:20:15;22.10;93.30
20680;DHT22;10499;47.494;7.608;2022-08-21T08:22:41;22.20;93.10
20680;DHT22;10499;47.494;7.608;2022-08-21T08:25:09;22.20;91.90
20680;DHT22;10499;47.494;7.608;2022-08-21T08:27:35;22.30;91.80
20680;DHT22;10499;47.494;7.608;2022-08-21T08:30:01;22.40;91.60
20680;DHT22;10499;47.494;7.608;2022-08-21T08:32:27;22.50;92.00
20680;DHT22;10499;47.494;7.608;2022-08-21T08:34:53;22.90;92.30
20680;DHT22;10499;47.494;7.608;2022-08-21T08:37:20;23.30;91.30
20680;DHT22;10499;47.494;7.608;2022-08-21T08:39:46;23.90;91.10
20680;DHT22;10499;47.494;7.608;2022-08-21T08:42:25;24.50;90.10
20680;DHT22;10499;47.494;7.608;2022-08-21T08:47:27;26.10;84.80
20680;DHT22;10499;47.494;7.608;2022-08-21T08:50:01;27.50;80.90
20680;DHT22;10499;47.494;7.608;2022-08-21T08:52:35;29.40;71.40
20680;DHT22;10499;47.494;7.608;2022-08-21T08:55:08;32.40;61.50
20680;DHT22;10499;47.494;7.608;2022-08-21T08:57:36;36.50;49.90
20680;DHT22;10499;47.494;7.608;2022-08-21T09:00:10;37.50;48.20
20680;DHT22;10499;47.494;7.608;2022-08-21T09:02:41;39.30;45.00
20680;DHT22;10499;47.494;7.608;2022-08-21T09:05:09;40.90;42.50
20680;DHT22;10499;47.494;7.608;2022-08-21T09:08:09;42.10;40.20
20680;DHT22;10499;47.494;7.608;2022-08-21T09:11:02;43.20;38.70
20680;DHT22;10499;47.494;7.608;2022-08-21T09:13:47;44.20;36.80
20680;DHT22;10499;47.494;7.608;2022-08-21T09:21:43;47.80;32.00
20680;DHT22;10499;47.494;7.608;2022-08-21T09:27:14;49.90;29.50
20680;DHT22;10499;47.494;7.608;2022-08-21T09:29:43;50.80;28.20
20680;DHT22;10499;47.494;7.608;2022-08-21T09:32:26;51.40;28.20
20680;DHT22;10499;47.494;7.608;2022-08-21T09:37:28;52.60;26.30
20680;DHT22;10499;47.494;7.608;2022-08-21T09:39:55;52.90;26.20
20680;DHT22;10499;47.494;7.608;2022-08-21T09:42:32;52.80;26.10
20680;DHT22;10499;47.494;7.608;2022-08-21T09:45:11;52.90;26.30
20680;DHT22;10499;47.494;7.608;2022-08-21T09:47:37;52.90;25.60
20680;DHT22;10499;47.494;7.608;2022-08-21T09:52:46;52.30;26.00
20680;DHT22;10499;47.494;7.608;2022-08-21T09:55:46;52.20;26.30
20680;DHT22;10499;47.494;7.608;2022-08-21T09:58:33;52.60;25.90
20680;DHT22;10499;47.494;7.608;2022-08-21T10:01:01;53.10;25.80
20680;DHT22;10499;47.494;7.608;2022-08-21T10:03:27;52.10;25.80
20680;DHT22;10499;47.494;7.608;2022-08-21T10:05:59;52.30;25.80
20680;DHT22;10499;47.494;7.608;2022-08-21T10:08:27;53.10;25.40
20680;DHT22;10499;47.494;7.608;2022-08-21T10:11:03;53.70;24.90
20680;DHT22;10499;47.494;7.608;2022-08-21T10:19:30;52.90;25.60
20680;DHT22;10499;47.494;7.608;2022-08-21T10:22:11;53.40;25.00
20680;DHT22;10499;47.494;7.608;2022-08-21T10:25:08;53.60;25.10
20680;DHT22;10499;47.494;7.608;2022-08-21T10:28:00;51.60;26.30
20680;DHT22;10499;47.494;7.608;2022-08-21T10:36:06;53.20;26.00
20680;DHT22;10499;47.494;7.608;2022-08-21T10:41:34;53.70;24.90
20680;DHT22;10499;47.494;7.608;2022-08-21T10:46:57;54.00;24.40
20680;DHT22;10499;47.494;7.608;2022-08-21T10:50:07;53.40;25.10
20680;DHT22;10499;47.494;7.608;2022-08-21T10:53:07;53.00;25.20
20680;DHT22;10499;47.494;7.608;2022-08-21T10:56:02;53.00;25.10
20680;DHT22;10499;47.494;7.608;2022-08-21T11:01:41;52.80;24.70
20680;DHT22;10499;47.494;7.608;2022-08-21T11:04:20;50.70;26.10
20680;DHT22;10499;47.494;7.608;2022-08-21T11:07:20;50.70;26.50
20680;DHT22;10499;47.494;7.608;2022-08-21T11:09:50;52.20;25.90
20680;DHT22;10499;47.494;7.608;2022-08-21T11:12:24;53.40;24.70
20680;DHT22;10499;47.494;7.608;2022-08-21T11:17:49;54.40;23.80
20680;DHT22;10499;47.494;7.608;2022-08-21T11:23:29;51.10;25.90
20680;DHT22;10499;47.494;7.608;2022-08-21T11:26:01;46.40;28.60
20680;DHT22;10499;47.494;7.608;2022-08-21T11:28:43;43.30;31.40
20680;DHT22;10499;47.494;7.608;2022-08-21T11:31:34;42.30;34.20
20680;DHT22;10499;47.494;7.608;2022-08-21T11:40:15;50.20;26.90
20680;DHT22;10499;47.494;7.608;2022-08-21T11:45:30;52.60;24.60
20680;DHT22;10499;47.494;7.608;2022-08-21T11:50:42;44.70;30.00
20680;DHT22;10499;47.494;7.608;2022-08-21T11:53:35;41.90;32.60
20680;DHT22;10499;47.494;7.608;2022-08-21T11:56:19;39.50;36.50
20680;DHT22;10499;47.494;7.608;2022-08-21T11:58:53;38.00;39.10
20680;DHT22;10499;47.494;7.608;2022-08-21T12:01:31;37.00;40.10
20680;DHT22;10499;47.494;7.608;2022-08-21T12:04:29;36.50;40.50
20680;DHT22;10499;47.494;7.608;2022-08-21T12:06:56;39.10;39.40
20680;DHT22;10499;47.494;7.608;2022-08-21T12:09:35;43.20;35.00
20680;DHT22;10499;47.494;7.608;2022-08-21T12:12:12;46.50;30.20
20680;DHT22;10499;47.494;7.608;2022-08-21T12:14:44;48.40;27.90
20680;DHT22;10499;47.494;7.608;2022-08-21T12:17:22;49.80;26.50
20680;DHT22;10499;47.494;7.608;2022-08-21T12:20:00;50.50;26.30
20680;DHT22;10499;47.494;7.608;2022-08-21T12:22:37;51.30;26.00
20680;DHT22;10499;47.494;7.608;2022-08-21T12:25:10;52.40;25.60
20680;DHT22;10499;47.494;7.608;2022-08-21T12:27:53;50.70;25.30
20680;DHT22;10499;47.494;7.608;2022-08-21T12:33:17;43.30;30.70
20680;DHT22;10499;47.494;7.608;2022-08-21T12:35:45;40.90;33.80
20680;DHT22;10499;47.494;7.608;2022-08-21T12:44:16;39.80;36.30
20680;DHT22;10499;47.494;7.608;2022-08-21T12:46:43;41.50;34.00
20680;DHT22;10499;47.494;7.608;2022-08-21T12:49:19;40.00;34.70
20680;DHT22;10499;47.494;7.608;2022-08-21T12:51:57;38.80;36.90
20680;DHT22;10499;47.494;7.608;2022-08-21T12:54:29;38.30;37.10
20680;DHT22;10499;47.494;7.608;2022-08-21T12:57:00;40.70;35.10
20680;DHT22;10499;47.494;7.608;2022-08-21T12:59:27;43.10;32.40
20680;DHT22;10499;47.494;7.608;2022-08-21T13:01:53;44.90;31.00
20680;DHT22;10499;47.494;7.608;2022-08-21T13:04:32;44.40;29.30
20680;DHT22;10499;47.494;7.608;2022-08-21T13:06:59;41.80;31.80
20680;DHT22;10499;47.494;7.608;2022-08-21T13:09:28;42.20;32.50
20680;DHT22;10499;47.494;7.608;2022-08-21T13:11:55;43.10;31.30
20680;DHT22;10499;47.494;7.608;2022-08-21T13:14:49;42.10;31.40
20680;DHT22;10499;47.494;7.608;2022-08-21T13:17:19;39.90;34.40
20680;DHT22;10499;47.494;7.608;2022-08-21T13:20:00;38.10;36.40
20680;DHT22;10499;47.494;7.608;2022-08-21T13:22:27;37.20;37.80
20680;DHT22;10499;47.494;7.608;2022-08-21T13:24:53;36.20;39.10
20680;DHT22;10499;47.494;7.608;2022-08-21T13:27:26;35.30;40.50
20680;DHT22;10499;47.494;7.608;2022-08-21T13:30:13;34.90;42.20
20680;DHT22;10499;47.494;7.608;2022-08-21T13:32:43;36.10;39.60
20680;DHT22;10499;47.494;7.608;2022-08-21T13:35:20;37.20;37.70
20680;DHT22;10499;47.494;7.608;2022-08-21T19:37:41;21.90;79.70
20680;DHT22;10499;47.494;7.608;2022-08-21T19:40:08;21.70;80.30
20680;DHT22;10499;47.494;7.608;2022-08-21T19:42:34;21.60;80.00
20680;DHT22;10499;47.494;7.608;2022-08-21T19:45:01;21.60;80.10
20680;DHT22;10499;47.494;7.608;2022-08-21T19:47:27;21.50;82.00
20680;DHT22;10499;47.494;7.608;2022-08-21T19:49:58;21.40;82.20
20680;DHT22;10499;47.494;7.608;2022-08-21T19:52:25;21.40;82.10
20680;DHT22;10499;47.494;7.608;2022-08-21T19:54:51;21.30;82.20
20680;DHT22;10499;47.494;7.608;2022-08-21T19:57:16;21.30;81.70
20680;DHT22;10499;47.494;7.608;2022-08-21T19:59:42;21.30;82.00
20680;DHT22;10499;47.494;7.608;2022-08-21T20:02:11;21.20;82.60
20680;DHT22;10499;47.494;7.608;2022-08-21T20:04:36;21.20;83.30
20680;DHT22;10499;47.494;7.608;2022-08-21T20:07:02;21.10;84.00
20680;DHT22;10499;47.494;7.608;2022-08-21T20:09:29;21.00;83.40
20680;DHT22;10499;47.494;7.608;2022-08-21T20:11:57;21.00;83.50
20680;DHT22;10499;47.494;7.608;2022-08-21T20:14:28;20.90;84.30
20680;DHT22;10499;47.494;7.608;2022-08-21T20:17:00;20.90;85.50
20680;DHT22;10499;47.494;7.608;2022-08-21T20:19:28;20.80;86.80
20680;DHT22;10499;47.494;7.608;2022-08-21T20:21:54;20.70;86.40
20680;DHT22;10499;47.494;7.608;2022-08-21T20:24:23;20.60;86.40
20680;DHT22;10499;47.494;7.608;2022-08-21T20:26:48;20.50;87.20
20680;DHT22;10499;47.494;7.608;2022-08-21T20:29:14;20.50;86.60
20680;DHT22;10499;47.494;7.608;2022-08-21T20:31:40;20.50;86.20
20680;DHT22;10499;47.494;7.608;2022-08-21T20:34:07;20.40;87.10
20680;DHT22;10499;47.494;7.608;2022-08-21T20:36:32;20.40;88.00
20680;DHT22;10499;47.494;7.608;2022-08-21T20:38:58;20.30;88.30
20680;DHT22;10499;47.494;7.608;2022-08-21T20:41:24;20.30;88.70
20680;DHT22;10499;47.494;7.608;2022-08-21T20:43:51;20.30;89.20
20680;DHT22;10499;47.494;7.608;2022-08-21T20:46:22;20.30;89.80
20680;DHT22;10499;47.494;7.608;2022-08-21T20:48:49;20.30;90.00
20680;DHT22;10499;47.494;7.608;2022-08-21T20:51:26;20.30;90.10
20680;DHT22;10499;47.494;7.608;2022-08-21T21:07:20;20.30;89.40
20680;DHT22;10499;47.494;7.608;2022-08-21T21:09:50;20.20;89.80
20680;DHT22;10499;47.494;7.608;2022-08-21T21:12:33;20.20;90.10
20680;DHT22;10499;47.494;7.608;2022-08-21T21:15:05;20.20;88.90
20680;DHT22;10499;47.494;7.608;2022-08-21T21:17:41;20.20;87.30
20680;DHT22;10499;47.494;7.608;2022-08-21T21:20:32;20.20;87.00
20680;DHT22;10499;47.494;7.608;2022-08-21T21:23:10;20.20;87.80
20680;DHT22;10499;47.494;7.608;2022-08-21T21:25:44;20.20;89.60
20680;DHT22;10499;47.494;7.608;2022-08-21T21:28:23;20.30;90.00
20680;DHT22;10499;47.494;7.608;2022-08-21T21:30:50;20.30;89.50
20680;DHT22;10499;47.494;7.608;2022-08-21T21:33:16;20.30;90.10
20680;DHT22;10499;47.494;7.608;2022-08-21T21:35:48;20.40;88.70
20680;DHT22;10499;47.494;7.608;2022-08-21T21:38:23;20.40;90.00
20680;DHT22;10499;47.494;7.608;2022-08-21T21:40:55;20.50;90.40
20680;DHT22;10499;47.494;7.608;2022-08-21T21:58:43;20.30;91.40
20680;DHT22;10499;47.494;7.608;2022-08-21T22:09:47;20.30;91.20
20680;DHT22;10499;47.494;7.608;2022-08-21T22:14:48;20.20;91.00
20680;DHT22;10499;47.494;7.608;2022-08-21T22:17:47;20.20;90.60
20680;DHT22;10499;47.494;7.608;2022-08-21T22:23:02;20.30;89.80
20680;DHT22;10499;47.494;7.608;2022-08-21T22:25:33;20.30;90.40
20680;DHT22;10499;47.494;7.608;2022-08-21T22:28:21;20.30;90.80
20680;DHT22;10499;47.494;7.608;2022-08-21T22:33:38;20.10;90.80
20680;DHT22;10499;47.494;7.608;2022-08-21T22:36:21;20.10;90.80
20680;DHT22;10499;47.494;7.608;2022-08-21T22:38:46;20.00;91.50
20680;DHT22;10499;47.494;7.608;2022-08-21T22:41:27;19.90;91.80
20680;DHT22;10499;47.494;7.608;2022-08-21T22:43:57;19.80;92.40
20680;DHT22;10499;47.494;7.608;2022-08-21T22:46:36;19.80;92.80
20680;DHT22;10499;47.494;7.608;2022-08-21T22:49:09;19.80;93.10
20680;DHT22;10499;47.494;7.608;2022-08-21T22:51:39;19.80;93.20
20680;DHT22;10499;47.494;7.608;2022-08-21T22:54:07;19.90;93.10
20680;DHT22;10499;47.494;7.608;2022-08-21T22:56:40;19.90;93.10
20680;DHT22;10499;47.494;7.608;2022-08-21T22:59:25;19.90;93.10
20680;DHT22;10499;47.494;7.608;2022-08-21T23:02:00;19.90;92.80
20680;DHT22;10499;47.494;7.608;2022-08-21T23:04:27;19.90;91.80
20680;DHT22;10499;47.494;7.608;2022-08-21T23:06:58;19.90;92.00
20680;DHT22;10499;47.494;7.608;2022-08-21T23:09:32;19.90;92.60
20680;DHT22;10499;47.494;7.608;2022-08-21T23:12:03;19.80;92.90
20680;DHT22;10499;47.494;7.608;2022-08-21T23:14:30;19.80;93.10
20680;DHT22;10499;47.494;7.608;2022-08-21T23:17:18;19.70;92.60
20680;DHT22;10499;47.494;7.608;2022-08-21T23:20:09;19.60;92.90
20680;DHT22;10499;47.494;7.608;2022-08-21T23:26:07;19.50;93.30
20680;DHT22;10499;47.494;7.608;2022-08-21T23:43:01;19.60;95.00
20680;DHT22;10499;47.494;7.608;2022-08-21T23:45:39;19.60;93.00
20680;DHT22;10499;47.494;7.608;2022-08-21T23:48:15;19.60;92.50
20680;DHT22;10499;47.494;7.608;2022-08-21T23:59:06;19.60;91.40
